createdAt,value
2023-03-15T00:01:21.236Z,87.90
2023-03-15T00:03:48.710Z,88.00
2023-03-15T00:06:16.873Z,88.00
2023-03-15T00:08:47.510Z,88.20
2023-03-15T00:11:18.312Z,88.30
2023-03-15T00:13:46.666Z,88.50
2023-03-15T00:16:17.639Z,88.60
2023-03-15T00:18:47.221Z,88.70
2023-03-15T00:21:14.904Z,88.70
2023-03-15T00:23:41.954Z,88.80
2023-03-15T00:26:08.908Z,88.80
2023-03-15T00:28:35.789Z,88.80
2023-03-15T00:31:07.247Z,88.80
2023-03-15T00:33:35.219Z,88.70
2023-03-15T00:36:07.792Z,88.70
2023-03-15T00:38:36.181Z,88.60
2023-03-15T00:41:11.543Z,88.70
2023-03-15T00:43:38.532Z,88.70
2023-03-15T00:46:06.270Z,88.80
2023-03-15T00:48:35.339Z,88.80
2023-03-15T00:51:11.018Z,88.90
2023-03-15T00:53:40.064Z,89.00
2023-03-15T00:56:15.550Z,88.90
2023-03-15T00:58:42.935Z,88.70
2023-03-15T01:01:12.983Z,88.70
2023-03-15T01:03:40.827Z,88.50
2023-03-15T01:06:28.742Z,88.40
2023-03-15T01:08:57.243Z,88.10
2023-03-15T01:11:26.981Z,88.00
2023-03-15T01:13:56.003Z,87.90
2023-03-15T01:16:23.196Z,87.90
2023-03-15T01:18:51.762Z,87.70
2023-03-15T01:21:19.141Z,87.70
2023-03-15T01:23:46.249Z,87.60
2023-03-15T01:26:15.384Z,87.60
2023-03-15T01:28:42.596Z,87.60
2023-03-15T01:31:27.545Z,87.50
2023-03-15T01:33:55.029Z,87.40
2023-03-15T01:36:21.915Z,87.40
2023-03-15T01:38:52.338Z,87.40
2023-03-15T01:41:21.010Z,87.50
2023-03-15T01:43:47.844Z,87.40
2023-03-15T01:46:27.877Z,87.20
2023-03-15T01:48:57.862Z,87.10
2023-03-15T01:51:33.784Z,86.90
2023-03-15T01:54:09.885Z,86.80
2023-03-15T01:56:41.063Z,86.70
2023-03-15T01:59:13.764Z,86.50
2023-03-15T02:01:45.833Z,86.30
2023-03-15T02:04:24.985Z,86.20
2023-03-15T02:06:59.219Z,86.10
2023-03-15T02:09:47.612Z,85.90
2023-03-15T02:12:14.421Z,85.90
2023-03-15T02:14:42.425Z,86.00
2023-03-15T02:17:09.341Z,86.00
2023-03-15T02:19:49.200Z,85.80
2023-03-15T02:23:06.559Z,85.70
2023-03-15T02:25:45.614Z,85.60
2023-03-15T02:28:15.505Z,85.50
2023-03-15T02:30:43.291Z,85.50
2023-03-15T02:33:32.138Z,85.50
2023-03-15T02:36:21.179Z,85.70
2023-03-15T02:38:49.163Z,85.70
2023-03-15T02:41:20.656Z,85.80
2023-03-15T02:43:52.223Z,85.70
2023-03-15T02:46:19.381Z,85.70
2023-03-15T02:48:47.879Z,85.60
2023-03-15T02:51:21.121Z,85.70
2023-03-15T02:53:48.672Z,85.70
2023-03-15T02:56:16.667Z,85.80
2023-03-15T02:58:47.190Z,86.00
2023-03-15T03:01:15.709Z,86.00
2023-03-15T03:03:43.964Z,85.90
2023-03-15T03:06:12.232Z,85.90
2023-03-15T03:08:39.163Z,86.10
2023-03-15T03:11:06.780Z,86.10
2023-03-15T03:13:33.700Z,86.20
2023-03-15T03:16:00.515Z,86.30
2023-03-15T03:18:31.991Z,86.10
2023-03-15T03:20:59.524Z,86.30
2023-03-15T03:23:27.017Z,86.20
2023-03-15T03:25:54.697Z,86.20
2023-03-15T03:28:24.118Z,86.30
2023-03-15T03:30:55.489Z,86.30
2023-03-15T03:33:23.206Z,86.50
2023-03-15T03:35:50.340Z,86.60
2023-03-15T03:38:17.188Z,86.60
2023-03-15T03:40:45.603Z,86.80
2023-03-15T03:43:12.401Z,86.90
2023-03-15T03:45:39.207Z,86.80
2023-03-15T03:48:06.190Z,86.90
2023-03-15T03:50:33.001Z,86.90
2023-03-15T03:52:59.913Z,86.90
2023-03-15T03:55:26.823Z,86.90
2023-03-15T03:57:53.713Z,86.80
2023-03-15T04:00:22.065Z,86.60
2023-03-15T04:02:49.276Z,86.80
2023-03-15T04:05:16.555Z,86.70
2023-03-15T04:07:43.352Z,87.00
2023-03-15T04:10:14.709Z,87.50
2023-03-15T04:12:45.191Z,88.00
2023-03-15T04:15:12.445Z,88.30
2023-03-15T04:17:39.535Z,88.60
2023-03-15T04:20:09.151Z,88.80
2023-03-15T04:22:35.998Z,89.30
2023-03-15T04:25:03.411Z,89.20
2023-03-15T04:27:30.818Z,89.20
2023-03-15T04:29:57.609Z,89.30
2023-03-15T04:32:24.733Z,89.60
2023-03-15T04:34:51.885Z,89.60
2023-03-15T04:37:19.066Z,89.70
2023-03-15T04:39:45.864Z,90.00
2023-03-15T04:42:12.695Z,90.00
2023-03-15T04:44:39.521Z,90.00
2023-03-15T04:47:06.585Z,90.00
2023-03-15T04:49:33.479Z,90.00
2023-03-15T04:52:00.539Z,89.80
2023-03-15T04:54:27.615Z,89.90
2023-03-15T04:56:54.416Z,89.80
2023-03-15T04:59:21.840Z,89.70
2023-03-15T05:01:49.096Z,89.80
2023-03-15T05:04:16.475Z,89.50
2023-03-15T05:06:43.327Z,89.50
2023-03-15T05:09:17.962Z,89.50
2023-03-15T05:11:46.487Z,89.70
2023-03-15T05:14:13.759Z,89.70
2023-03-15T05:16:40.706Z,89.90
2023-03-15T05:19:07.630Z,90.00
2023-03-15T05:21:34.584Z,90.00
2023-03-15T05:24:01.460Z,90.00
2023-03-15T05:26:28.296Z,90.00
2023-03-15T05:28:55.234Z,90.10
2023-03-15T05:31:22.191Z,90.20
2023-03-15T05:33:49.360Z,90.30
2023-03-15T05:36:17.556Z,90.20
2023-03-15T05:38:45.684Z,90.30
2023-03-15T05:41:17.907Z,90.20
2023-03-15T05:43:45.243Z,90.20
2023-03-15T05:46:12.116Z,90.10
2023-03-15T05:48:39.009Z,90.20
2023-03-15T05:51:06.111Z,90.20
2023-03-15T05:53:33.231Z,90.20
2023-03-15T05:56:00.211Z,90.20
2023-03-15T05:58:27.471Z,90.30
2023-03-15T06:00:54.475Z,90.40
2023-03-15T06:03:21.400Z,90.40
2023-03-15T06:05:48.453Z,90.50
2023-03-15T06:08:15.363Z,90.50
2023-03-15T06:10:42.206Z,90.50
2023-03-15T06:13:09.458Z,90.60
2023-03-15T06:15:36.427Z,90.70
2023-03-15T06:18:03.268Z,90.70
2023-03-15T06:20:31.192Z,90.80
2023-03-15T06:22:58.272Z,90.90
2023-03-15T06:25:25.190Z,90.90
2023-03-15T06:27:52.313Z,91.00
2023-03-15T06:30:20.574Z,90.90
2023-03-15T06:32:47.653Z,90.70
2023-03-15T06:35:14.529Z,90.60
2023-03-15T06:37:41.988Z,90.50
2023-03-15T06:40:12.985Z,90.40
2023-03-15T06:42:41.770Z,90.50
2023-03-15T06:45:09.951Z,90.40
2023-03-15T06:47:36.885Z,90.50
2023-03-15T06:50:04.235Z,90.40
2023-03-15T06:52:31.097Z,90.40
2023-03-15T06:54:58.066Z,90.50
2023-03-15T06:57:25.050Z,90.50
2023-03-15T06:59:54.076Z,90.50
2023-03-15T07:02:21.084Z,90.50
2023-03-15T07:04:48.191Z,90.40
2023-03-15T07:07:15.644Z,90.40
2023-03-15T07:09:42.623Z,90.30
2023-03-15T07:12:11.246Z,90.30
2023-03-15T07:14:38.050Z,90.40
2023-03-15T07:17:05.005Z,90.40
2023-03-15T07:19:31.818Z,90.30
2023-03-15T07:21:58.600Z,90.30
2023-03-15T07:24:25.484Z,90.40
2023-03-15T07:26:56.326Z,90.40
2023-03-15T07:29:24.249Z,90.30
2023-03-15T07:31:51.227Z,90.30
2023-03-15T07:34:19.322Z,90.30
2023-03-15T07:36:46.166Z,90.30
2023-03-15T07:39:13.854Z,90.30
2023-03-15T07:41:40.734Z,90.20
2023-03-15T07:44:07.720Z,90.10
2023-03-15T07:46:34.717Z,90.00
2023-03-15T07:49:01.688Z,89.50
2023-03-15T07:51:28.597Z,89.20
2023-03-15T07:53:55.459Z,89.10
2023-03-15T07:56:22.320Z,89.70
2023-03-15T07:58:49.143Z,89.80
2023-03-15T08:01:15.960Z,89.20
2023-03-15T08:03:42.743Z,88.50
2023-03-15T08:06:09.646Z,88.20
2023-03-15T08:08:36.448Z,88.60
2023-03-15T08:11:05.558Z,88.40
2023-03-15T08:13:32.645Z,88.50
2023-03-15T08:15:59.516Z,88.20
2023-03-15T08:18:28.972Z,87.70
2023-03-15T08:20:56.240Z,87.00
2023-03-15T08:23:23.519Z,87.10
2023-03-15T08:25:50.465Z,87.40
2023-03-15T08:28:17.778Z,87.20
2023-03-15T08:30:44.602Z,87.30
2023-03-15T08:33:12.562Z,87.80
2023-03-15T08:35:39.471Z,87.30
2023-03-15T08:38:06.272Z,87.00
2023-03-15T08:40:33.080Z,87.00
2023-03-15T08:43:00.086Z,86.20
2023-03-15T08:45:27.896Z,86.60
2023-03-15T08:47:56.957Z,85.80
2023-03-15T08:50:24.323Z,85.30
2023-03-15T08:52:51.169Z,86.00
2023-03-15T08:55:18.084Z,85.90
2023-03-15T08:57:45.023Z,85.80
2023-03-15T09:00:23.287Z,85.90
2023-03-15T09:02:52.129Z,85.90
2023-03-15T09:05:20.174Z,85.30
2023-03-15T09:07:48.087Z,84.90
2023-03-15T09:10:16.839Z,84.70
2023-03-15T09:12:46.066Z,84.20
2023-03-15T09:15:13.500Z,84.10
2023-03-15T09:17:40.937Z,84.00
2023-03-15T09:20:22.392Z,84.00
2023-03-15T09:22:55.113Z,84.40
2023-03-15T09:25:23.058Z,84.30
2023-03-15T09:27:50.734Z,83.10
2023-03-15T09:30:17.840Z,82.60
2023-03-15T09:32:45.912Z,83.40
2023-03-15T09:35:18.965Z,83.60
2023-03-15T09:37:46.480Z,83.40
2023-03-15T09:40:22.182Z,83.30
2023-03-15T09:43:07.462Z,83.90
2023-03-15T09:46:08.100Z,83.70
2023-03-15T09:48:46.842Z,84.30
2023-03-15T09:51:28.469Z,83.40
2023-03-15T09:54:00.866Z,84.00
2023-03-15T09:56:35.754Z,83.20
2023-03-15T09:59:03.809Z,82.80
2023-03-15T10:01:41.994Z,81.40
2023-03-15T10:04:15.700Z,80.90
2023-03-15T10:06:49.796Z,80.20
2023-03-15T10:09:22.135Z,80.10
2023-03-15T10:12:04.468Z,80.60
2023-03-15T10:14:56.201Z,80.50
2023-03-15T10:17:42.414Z,80.80
2023-03-15T10:20:19.030Z,81.00
2023-03-15T10:23:05.725Z,77.60
2023-03-15T10:25:33.733Z,76.70
2023-03-15T10:28:18.899Z,76.10
2023-03-15T10:30:51.563Z,76.60
2023-03-15T10:33:29.410Z,75.80
2023-03-15T10:36:09.667Z,73.30
2023-03-15T10:38:38.409Z,71.80
2023-03-15T10:41:06.868Z,70.90
2023-03-15T10:43:37.073Z,70.40
2023-03-15T10:46:08.528Z,72.20
2023-03-15T10:48:38.232Z,70.20
2023-03-15T10:51:06.567Z,70.30
2023-03-15T10:53:33.735Z,70.10
2023-03-15T10:56:13.855Z,71.10
2023-03-15T10:58:49.311Z,68.80
2023-03-15T11:01:29.234Z,68.90
2023-03-15T11:04:16.108Z,69.20
2023-03-15T11:06:59.293Z,66.60
2023-03-15T11:09:27.466Z,65.90
2023-03-15T11:11:57.063Z,66.20
2023-03-15T11:14:24.322Z,65.80
2023-03-15T11:16:57.008Z,65.30
2023-03-15T11:19:28.106Z,66.40
2023-03-15T11:21:56.190Z,65.20
2023-03-15T11:24:29.829Z,66.10
2023-03-15T11:27:02.127Z,67.30
2023-03-15T11:29:31.617Z,66.20
2023-03-15T11:32:10.855Z,67.10
2023-03-15T11:35:02.365Z,66.10
2023-03-15T11:37:51.630Z,67.90
2023-03-15T11:40:32.779Z,66.20
2023-03-15T11:43:18.409Z,65.80
2023-03-15T11:45:51.213Z,67.00
2023-03-15T11:48:36.516Z,65.80
2023-03-15T11:51:03.437Z,66.00
2023-03-15T11:53:38.137Z,62.60
2023-03-15T11:56:25.481Z,61.80
2023-03-15T11:59:13.103Z,63.50
2023-03-15T12:01:50.570Z,64.50
2023-03-15T12:04:32.511Z,64.60
2023-03-15T12:07:31.389Z,64.20
2023-03-15T12:10:20.553Z,66.10
2023-03-15T12:12:56.606Z,67.30
2023-03-15T12:15:23.424Z,67.10
2023-03-15T12:17:54.188Z,71.20
2023-03-15T12:20:42.942Z,73.20
2023-03-15T12:23:19.068Z,74.40
2023-03-15T12:25:57.218Z,74.80
2023-03-15T12:28:52.451Z,76.90
2023-03-15T12:31:20.174Z,76.80
2023-03-15T12:33:52.942Z,78.90
2023-03-15T12:36:38.163Z,76.10
2023-03-15T12:39:14.200Z,75.50
2023-03-15T12:41:46.630Z,77.00
2023-03-15T12:44:31.929Z,79.80
2023-03-15T12:47:03.637Z,81.80
2023-03-15T12:49:32.297Z,82.70
2023-03-15T12:52:10.967Z,82.60
2023-03-15T12:54:55.092Z,83.00
2023-03-15T12:57:29.866Z,83.50
2023-03-15T13:00:15.785Z,83.70
2023-03-15T13:02:49.829Z,82.60
2023-03-15T13:05:28.963Z,83.60
2023-03-15T13:08:16.467Z,83.20
2023-03-15T13:11:07.521Z,83.40
2023-03-15T13:14:00.999Z,83.60
2023-03-15T13:16:36.785Z,83.40
2023-03-15T13:19:23.733Z,83.40
2023-03-15T13:22:06.091Z,83.70
2023-03-15T13:24:35.639Z,82.90
2023-03-15T13:27:08.867Z,80.00
2023-03-15T13:29:36.687Z,78.70
2023-03-15T13:32:24.367Z,79.10
2023-03-15T13:34:51.259Z,80.80
2023-03-15T13:37:22.125Z,79.20
2023-03-15T13:40:08.760Z,77.60
2023-03-15T13:42:40.075Z,77.30
2023-03-15T13:45:07.124Z,79.50
2023-03-15T13:47:37.184Z,77.10
2023-03-15T13:50:05.998Z,78.30
2023-03-15T13:52:41.272Z,77.70
2023-03-15T13:55:10.107Z,78.30
2023-03-15T13:57:37.120Z,79.40
2023-03-15T14:00:13.492Z,78.60
2023-03-15T14:02:44.494Z,78.00
2023-03-15T14:05:18.877Z,78.20
2023-03-15T14:07:48.837Z,79.60
2023-03-15T14:10:31.944Z,76.60
2023-03-15T14:13:17.778Z,77.80
2023-03-15T14:15:47.091Z,79.00
2023-03-15T14:18:32.451Z,78.20
2023-03-15T14:21:01.586Z,76.70
2023-03-15T14:23:29.745Z,77.50
2023-03-15T14:26:18.591Z,75.60
2023-03-15T14:29:10.487Z,76.90
2023-03-15T14:31:46.788Z,77.90
2023-03-15T14:34:35.468Z,77.20
2023-03-15T14:37:09.757Z,76.80
2023-03-15T14:39:42.815Z,77.30
2023-03-15T14:42:12.101Z,77.00
2023-03-15T14:44:39.088Z,76.20
2023-03-15T14:47:17.030Z,75.50
2023-03-15T14:49:43.951Z,78.00
2023-03-15T14:52:14.964Z,77.80
2023-03-15T14:54:49.711Z,75.00
2023-03-15T14:57:16.560Z,77.10
2023-03-15T14:59:43.910Z,75.80
2023-03-15T15:02:18.026Z,74.30
2023-03-15T15:04:48.107Z,74.60
2023-03-15T15:07:17.386Z,76.30
2023-03-15T15:09:48.731Z,76.00
2023-03-15T15:12:15.838Z,75.30
2023-03-15T15:14:45.322Z,75.00
2023-03-15T15:17:12.196Z,78.20
2023-03-15T15:19:39.047Z,78.50
2023-03-15T15:22:05.853Z,78.60
2023-03-15T15:24:32.676Z,77.20
2023-03-15T15:26:59.564Z,78.10
2023-03-15T15:29:26.596Z,78.10
2023-03-15T15:31:53.479Z,78.60
2023-03-15T15:34:20.298Z,75.70
2023-03-15T15:36:47.363Z,76.30
2023-03-15T15:39:27.532Z,75.90
2023-03-15T15:41:54.548Z,75.30
2023-03-15T15:44:23.933Z,74.30
2023-03-15T15:46:50.845Z,74.50
2023-03-15T15:49:19.437Z,75.00
2023-03-15T15:51:49.648Z,73.50
2023-03-15T15:54:20.210Z,74.30
2023-03-15T15:56:54.224Z,75.00
2023-03-15T15:59:21.140Z,74.00
2023-03-15T16:02:00.695Z,75.00
2023-03-15T16:04:28.655Z,73.90
2023-03-15T16:07:04.250Z,75.00
2023-03-15T16:09:36.149Z,74.60
2023-03-15T16:12:10.632Z,73.80
2023-03-15T16:14:37.469Z,74.60
2023-03-15T16:17:17.918Z,75.80
2023-03-15T16:19:45.188Z,76.70
2023-03-15T16:22:12.082Z,77.60
2023-03-15T16:24:44.111Z,77.70
2023-03-15T16:27:23.306Z,77.60
2023-03-15T16:29:52.943Z,76.80
2023-03-15T16:32:32.974Z,76.20
2023-03-15T16:35:05.493Z,76.70
2023-03-15T16:37:32.686Z,76.60
2023-03-15T16:40:01.709Z,76.70
2023-03-15T16:42:28.713Z,77.40
2023-03-15T16:44:55.562Z,77.80
2023-03-15T16:47:22.384Z,77.40
2023-03-15T16:49:49.462Z,77.50
2023-03-15T16:52:17.269Z,77.90
2023-03-15T16:54:47.559Z,78.20
2023-03-15T16:57:22.788Z,77.70
2023-03-15T16:59:50.466Z,78.30
2023-03-15T17:02:23.047Z,78.50
2023-03-15T17:04:50.093Z,79.00
2023-03-15T17:07:17.616Z,78.90
2023-03-15T17:09:47.426Z,79.30
2023-03-15T17:12:23.511Z,78.80
2023-03-15T17:14:50.795Z,78.60
2023-03-15T17:17:17.745Z,79.20
2023-03-15T17:19:44.699Z,79.90
2023-03-15T17:22:11.986Z,80.20
2023-03-15T17:24:38.870Z,80.50
2023-03-15T17:27:05.981Z,81.00
2023-03-15T17:29:33.286Z,81.30
2023-03-15T17:32:00.370Z,81.80
2023-03-15T17:34:27.260Z,82.10
2023-03-15T17:36:54.218Z,82.60
2023-03-15T17:39:21.029Z,83.00
2023-03-15T17:41:48.310Z,83.50
2023-03-15T17:44:15.209Z,83.80
2023-03-15T17:46:43.477Z,84.10
2023-03-15T17:49:12.990Z,84.40
2023-03-15T17:51:44.812Z,84.80
2023-03-15T17:54:18.347Z,85.10
2023-03-15T17:56:47.102Z,85.20
2023-03-15T17:59:14.506Z,85.50
2023-03-15T18:01:45.693Z,85.80
2023-03-15T18:04:14.919Z,86.20
2023-03-15T18:06:42.880Z,86.50
2023-03-15T18:09:11.619Z,86.70
2023-03-15T18:11:42.632Z,86.90
2023-03-15T18:14:15.331Z,87.00
2023-03-15T18:16:43.415Z,87.00
2023-03-15T18:19:10.664Z,87.10
2023-03-15T18:21:37.674Z,87.20
2023-03-15T18:24:04.700Z,87.10
2023-03-15T18:26:31.523Z,87.10
2023-03-15T18:28:58.432Z,87.30
2023-03-15T18:31:26.352Z,87.50
2023-03-15T18:33:54.328Z,87.50
2023-03-15T18:36:21.186Z,87.50
2023-03-15T18:38:48.681Z,87.50
2023-03-15T18:41:21.768Z,87.60
2023-03-15T18:43:52.395Z,87.70
2023-03-15T18:46:24.665Z,87.80
2023-03-15T18:48:55.846Z,87.80
2023-03-15T18:51:28.284Z,87.80
2023-03-15T18:53:55.637Z,87.80
2023-03-15T18:56:25.657Z,88.00
2023-03-15T18:58:53.685Z,88.00
2023-03-15T19:01:24.953Z,88.00
2023-03-15T19:03:53.547Z,88.10
2023-03-15T19:06:21.440Z,88.20
2023-03-15T19:08:53.300Z,88.30
2023-03-15T19:11:21.456Z,88.20
2023-03-15T19:13:51.391Z,88.20
2023-03-15T19:16:19.679Z,88.00
2023-03-15T19:18:47.492Z,88.00
2023-03-15T19:21:14.377Z,88.00
2023-03-15T19:23:41.266Z,88.00
2023-03-15T19:26:09.012Z,87.90
2023-03-15T19:28:36.842Z,87.90
2023-03-15T19:31:03.910Z,87.80
2023-03-15T19:33:30.852Z,87.90
2023-03-15T19:35:57.734Z,87.80
2023-03-15T19:38:24.610Z,87.90
2023-03-15T19:40:55.197Z,88.00
2023-03-15T19:43:23.530Z,88.00
2023-03-15T19:45:50.939Z,88.10
2023-03-15T19:48:17.922Z,88.10
2023-03-15T19:50:44.931Z,88.10
2023-03-15T19:53:12.278Z,88.10
2023-03-15T19:55:39.118Z,88.20
2023-03-15T19:58:05.962Z,88.40
2023-03-15T20:00:32.903Z,88.40
2023-03-15T20:03:00.008Z,88.50
2023-03-15T20:05:27.164Z,88.60
2023-03-15T20:07:54.386Z,88.80
2023-03-15T20:10:21.730Z,88.90
2023-03-15T20:12:48.840Z,89.00
2023-03-15T20:15:18.580Z,89.10
2023-03-15T20:17:46.115Z,89.30
2023-03-15T20:20:14.857Z,89.30
2023-03-15T20:22:43.678Z,89.20
2023-03-15T20:25:13.019Z,89.30
2023-03-15T20:27:40.537Z,89.20
2023-03-15T20:30:09.892Z,89.10
2023-03-15T20:32:36.758Z,89.10
2023-03-15T20:35:08.980Z,89.10
2023-03-15T20:37:39.837Z,89.10
2023-03-15T20:40:09.065Z,89.10
2023-03-15T20:42:35.936Z,89.00
2023-03-15T20:45:04.376Z,88.80
2023-03-15T20:47:31.428Z,88.80
2023-03-15T20:49:58.292Z,89.00
2023-03-15T20:52:25.540Z,89.10
2023-03-15T20:54:52.536Z,89.20
2023-03-15T20:57:19.468Z,89.10
2023-03-15T20:59:46.791Z,89.10
2023-03-15T21:02:13.795Z,89.10
2023-03-15T21:04:40.893Z,89.10
2023-03-15T21:07:08.014Z,89.20
2023-03-15T21:09:35.419Z,89.20
2023-03-15T21:12:02.907Z,89.10
2023-03-15T21:14:29.812Z,89.20
2023-03-15T21:16:56.873Z,89.10
2023-03-15T21:19:24.855Z,89.10
2023-03-15T21:21:51.728Z,89.10
2023-03-15T21:24:18.591Z,89.40
2023-03-15T21:26:48.601Z,89.40
2023-03-15T21:29:15.400Z,89.60
2023-03-15T21:31:42.708Z,89.70
2023-03-15T21:34:09.650Z,89.90
2023-03-15T21:36:36.574Z,89.90
2023-03-15T21:39:05.951Z,90.00
2023-03-15T21:41:34.164Z,90.00
2023-03-15T21:44:01.112Z,90.20
2023-03-15T21:46:28.115Z,90.10
2023-03-15T21:48:55.898Z,90.20
2023-03-15T21:51:22.755Z,90.20
2023-03-15T21:53:50.381Z,90.20
2023-03-15T21:56:17.363Z,90.20
2023-03-15T21:58:44.370Z,90.20
2023-03-15T22:01:13.924Z,90.20
2023-03-15T22:03:42.534Z,90.20
2023-03-15T22:06:09.884Z,90.20
2023-03-15T22:08:36.873Z,90.20
2023-03-15T22:11:04.658Z,90.30
2023-03-15T22:13:31.681Z,90.30
2023-03-15T22:15:59.101Z,90.30
2023-03-15T22:18:28.799Z,90.40
2023-03-15T22:20:56.767Z,90.40
2023-03-15T22:23:23.844Z,90.40
2023-03-15T22:25:53.518Z,90.40
2023-03-15T22:28:21.245Z,90.40
2023-03-15T22:30:49.691Z,90.40
2023-03-15T22:33:18.158Z,90.30
2023-03-15T22:35:45.209Z,90.30
2023-03-15T22:38:15.796Z,90.20
2023-03-15T22:40:43.044Z,90.30
2023-03-15T22:43:09.981Z,90.30
2023-03-15T22:45:37.048Z,90.40
2023-03-15T22:48:04.011Z,90.40
2023-03-15T22:50:31.060Z,90.40
2023-03-15T22:52:58.081Z,90.50
2023-03-15T22:55:25.373Z,90.50
2023-03-15T22:57:53.940Z,90.50
2023-03-15T23:00:22.326Z,90.50
2023-03-15T23:02:49.447Z,90.50
2023-03-15T23:05:16.526Z,90.50
2023-03-15T23:07:43.731Z,90.50
2023-03-15T23:10:11.423Z,90.40
2023-03-15T23:12:38.451Z,90.40
2023-03-15T23:15:05.890Z,90.40
2023-03-15T23:17:32.952Z,90.40
2023-03-15T23:20:00.153Z,90.40
2023-03-15T23:22:27.220Z,90.40
2023-03-15T23:24:57.953Z,90.50
2023-03-15T23:27:26.096Z,90.50
2023-03-15T23:29:54.894Z,90.50
2023-03-15T23:32:26.272Z,90.60
2023-03-15T23:34:53.792Z,90.60
2023-03-15T23:37:21.061Z,90.60
2023-03-15T23:39:47.984Z,90.60
2023-03-15T23:42:14.881Z,90.50
2023-03-15T23:44:41.761Z,90.50
2023-03-15T23:47:08.816Z,90.60
2023-03-15T23:49:35.708Z,90.60
2023-03-15T23:52:05.699Z,90.60
2023-03-15T23:54:39.645Z,90.70
2023-03-15T23:57:08.251Z,90.70
2023-03-15T23:59:36.266Z,90.70
